Time;durP1;ratioP1;P1;durP2;ratioP2;P2;SDS_P1;SDS_P2;PMS_P1;PMS_P2;Temp;Humidity;BMP_temperature;BMP_pressure;BME280_temperature;BME280_humidity;BME280_pressure;Samples;Min_cycle;Max_cycle;Signal;HPM_P1;HPM_P2
2023/04/25 00:02:24;;;;;;;1999.90;999.90;;;;;;;9.04;100.00;97205.16;5113755;28;20008;-74
2023/04/25 00:04:50;;;;;;;1999.90;999.90;;;;;;;9.05;100.00;97201.34;5113659;28;20051;-75
2023/04/25 00:07:15;;;;;;;1999.90;999.90;;;;;;;9.01;100.00;97194.88;5113645;28;20076;-74
2023/04/25 00:09:41;;;;;;;1999.90;999.90;;;;;;;8.93;100.00;97193.66;5113528;28;20051;-74
2023/04/25 00:12:07;;;;;;;1999.90;999.90;;;;;;;8.89;100.00;97184.47;5113491;28;20492;-76
2023/04/25 00:14:35;;;;;;;1999.90;999.90;;;;;;;8.83;100.00;97190.34;5113617;28;20038;-75
2023/04/25 00:17:02;;;;;;;1999.90;999.90;;;;;;;8.89;100.00;97192.66;5112432;28;20048;-75
2023/04/25 00:19:28;;;;;;;1999.90;999.90;;;;;;;8.87;100.00;97189.41;5113222;28;20035;-74
2023/04/25 00:21:54;;;;;;;1999.90;999.90;;;;;;;8.84;100.00;97178.28;5113254;28;20026;-75
2023/04/25 00:24:20;;;;;;;1999.90;999.90;;;;;;;8.83;100.00;97182.16;5113545;28;20019;-75
2023/04/25 00:26:45;;;;;;;1999.90;999.90;;;;;;;8.82;100.00;97188.69;5113561;28;20027;-75
2023/04/25 00:29:11;;;;;;;1999.90;999.90;;;;;;;8.90;100.00;97187.97;5113233;28;20031;-75
2023/04/25 00:31:36;;;;;;;1999.90;999.90;;;;;;;8.86;100.00;97187.81;5113143;28;20028;-74
2023/04/25 00:34:02;;;;;;;1999.90;999.90;;;;;;;8.84;100.00;97184.56;5113157;28;20031;-75
2023/04/25 00:36:27;;;;;;;1999.90;999.90;;;;;;;8.90;100.00;97182.53;5112597;28;20041;-74
2023/04/25 00:38:54;;;;;;;1999.90;999.90;;;;;;;9.00;100.00;97183.13;5113060;28;20020;-74
2023/04/25 00:41:20;;;;;;;1999.90;999.90;;;;;;;9.00;100.00;97182.34;5113810;28;20480;-75
2023/04/25 00:43:47;;;;;;;1999.90;999.90;;;;;;;9.10;100.00;97187.59;5095260;28;20022;-74
2023/04/25 00:46:12;;;;;;;1999.90;999.90;;;;;;;9.08;100.00;97185.16;5113773;28;20068;-74
2023/04/25 00:48:38;;;;;;;1999.90;999.90;;;;;;;9.08;100.00;97182.41;5114649;27;20027;-74
2023/04/25 00:51:03;;;;;;;1999.90;999.90;;;;;;;9.13;100.00;97182.31;5115089;27;20042;-74
2023/04/25 00:53:30;;;;;;;1999.90;999.90;;;;;;;9.08;100.00;97184.38;5114923;27;20390;-73
2023/04/25 00:55:55;;;;;;;1999.90;999.90;;;;;;;9.06;100.00;97175.66;5133673;27;20502;-74
2023/04/25 00:58:22;;;;;;;1999.90;999.90;;;;;;;9.07;100.00;97189.00;5133168;27;20019;-74
2023/04/25 01:00:48;;;;;;;1999.90;999.90;;;;;;;9.06;100.00;97194.75;5133273;27;20095;-74
2023/04/25 01:03:21;;;;;;;1999.90;999.90;;;;;;;9.13;100.00;97198.69;5133051;27;20054;-74
2023/04/25 01:05:47;;;;;;;1999.90;999.90;;;;;;;9.02;100.00;97178.19;5132919;27;20019;-74
2023/04/25 01:08:14;;;;;;;1999.90;999.90;;;;;;;9.13;100.00;97193.25;5133128;27;20023;-74
2023/04/25 01:10:40;;;;;;;1999.90;999.90;;;;;;;9.03;100.00;97198.09;5132596;27;20047;-74
2023/04/25 01:13:05;;;;;;;1999.90;999.90;;;;;;;9.08;100.00;97196.06;5132833;27;20039;-74
2023/04/25 01:15:31;;;;;;;1999.90;999.90;;;;;;;9.04;100.00;97181.44;5132696;27;20011;-74
2023/04/25 01:17:58;;;;;;;1999.90;999.90;;;;;;;9.08;100.00;97192.53;5132602;27;20026;-74
2023/04/25 01:20:24;;;;;;;1999.90;999.90;;;;;;;9.01;100.00;97192.13;5132760;27;20023;-74
2023/04/25 01:22:51;;;;;;;1999.90;999.90;;;;;;;9.08;100.00;97198.00;5114735;27;20023;-73
2023/04/25 01:25:17;;;;;;;1999.90;999.90;;;;;;;9.02;100.00;97193.75;5133557;27;20019;-73
2023/04/25 01:27:43;;;;;;;1999.90;999.90;;;;;;;8.93;100.00;97192.84;5133366;27;20080;-73
2023/04/25 01:30:09;;;;;;;1999.90;999.90;;;;;;;8.95;100.00;97194.16;5133140;27;20031;-74
2023/04/25 01:32:38;;;;;;;1999.90;999.90;;;;;;;9.00;100.00;97201.41;5131936;27;20034;-73
2023/04/25 01:35:09;;;;;;;1999.90;999.90;;;;;;;8.90;100.00;97194.25;5132453;27;20019;-74
2023/04/25 01:37:39;;;;;;;1999.90;999.90;;;;;;;8.84;100.00;97197.38;5132283;27;20047;-74
2023/04/25 01:40:05;;;;;;;1999.90;999.90;;;;;;;8.77;100.00;97197.78;5133217;27;20098;-74
2023/04/25 01:42:32;;;;;;;1999.90;999.90;;;;;;;8.72;100.00;97197.06;5134509;27;20372;-74
2023/04/25 01:44:57;;;;;;;1999.90;999.90;;;;;;;8.74;100.00;97201.09;5136990;27;20034;-77
2023/04/25 01:47:23;;;;;;;1999.90;999.90;;;;;;;8.77;100.00;97205.19;5135463;27;20023;-74
2023/04/25 01:49:48;;;;;;;1999.90;999.90;;;;;;;8.67;100.00;97205.34;5132546;27;20114;-74
2023/04/25 01:52:14;;;;;;;1999.90;999.90;;;;;;;8.61;100.00;97202.72;5132025;27;20050;-74
2023/04/25 01:54:43;;;;;;;1999.90;999.90;;;;;;;8.66;100.00;97204.53;5131996;27;20110;-74
2023/04/25 01:57:09;;;;;;;1999.90;999.90;;;;;;;8.69;100.00;97208.59;5132283;27;20114;-73
2023/04/25 01:59:35;;;;;;;1999.90;999.90;;;;;;;8.71;100.00;97211.84;5132001;27;20110;-74
2023/04/25 02:02:03;;;;;;;1999.90;999.90;;;;;;;8.81;100.00;97209.69;5132115;27;20102;-74
2023/04/25 02:04:29;;;;;;;1999.90;999.90;;;;;;;8.77;100.00;97205.19;5131959;27;20072;-74
2023/04/25 02:06:54;;;;;;;1999.90;999.90;;;;;;;8.76;100.00;97209.00;5131913;27;20058;-74
2023/04/25 02:09:20;;;;;;;1999.90;999.90;;;;;;;8.82;100.00;97208.59;5132364;27;20039;-73
2023/04/25 02:11:45;;;;;;;1999.90;999.90;;;;;;;8.87;100.00;97215.84;5132693;27;20027;-74
2023/04/25 02:14:11;;;;;;;1999.90;999.90;;;;;;;8.86;100.00;97209.63;5131684;27;20098;-75
2023/04/25 02:16:36;;;;;;;1999.90;999.90;;;;;;;8.91;100.00;97205.97;5131719;27;20027;-74
2023/04/25 02:19:01;;;;;;;1999.90;999.90;;;;;;;8.85;100.00;97209.91;5131760;27;20405;-75
2023/04/25 02:21:27;;;;;;;1999.90;999.90;;;;;;;8.96;100.00;97212.13;5131640;27;20019;-75
2023/04/25 02:23:52;;;;;;;1999.90;999.90;;;;;;;8.90;100.00;97215.25;5131285;27;20058;-75
2023/04/25 02:26:18;;;;;;;1999.90;999.90;;;;;;;8.95;100.00;97215.16;5132129;27;20026;-75
2023/04/25 02:28:43;;;;;;;1999.90;999.90;;;;;;;8.96;100.00;97214.84;5131445;27;20492;-73
2023/04/25 02:31:09;;;;;;;1999.90;999.90;;;;;;;9.03;100.00;97215.25;5131002;27;20062;-74
2023/04/25 02:33:34;;;;;;;1999.90;999.90;;;;;;;9.04;100.00;97221.53;5113061;28;20023;-74
2023/04/25 02:35:59;;;;;;;1999.90;999.90;;;;;;;9.01;100.00;97222.16;5131450;27;20047;-74
2023/04/25 02:38:25;;;;;;;1999.90;999.90;;;;;;;8.92;100.00;97224.78;5132633;27;20023;-74
2023/04/25 02:40:50;;;;;;;1999.90;999.90;;;;;;;8.93;100.00;97228.28;5138232;27;20031;-74
2023/04/25 02:43:16;;;;;;;1999.90;999.90;;;;;;;8.89;100.00;97211.75;5138416;27;20027;-73
2023/04/25 02:45:41;;;;;;;1999.90;999.90;;;;;;;8.84;100.00;97213.75;5138094;27;20510;-73
2023/04/25 02:48:06;;;;;;;1999.90;999.90;;;;;;;8.90;100.00;97207.06;5121254;27;20050;-73
2023/04/25 02:50:32;;;;;;;1999.90;999.90;;;;;;;8.86;100.00;97211.53;5134213;27;20043;-73
2023/04/25 02:52:57;;;;;;;1999.90;999.90;;;;;;;8.92;100.00;97215.78;5135985;27;20027;-73
2023/04/25 02:55:22;;;;;;;1999.90;999.90;;;;;;;8.93;100.00;97214.66;5137652;27;20037;-73
2023/04/25 02:57:48;;;;;;;1999.90;999.90;;;;;;;8.96;100.00;97209.41;5138139;27;20027;-73
2023/04/25 03:00:14;;;;;;;1999.90;999.90;;;;;;;9.00;100.00;97212.34;5150883;27;20019;-73
2023/04/25 03:02:40;;;;;;;1999.90;999.90;;;;;;;8.98;100.00;97209.94;5157745;27;20458;-74
2023/04/25 03:05:05;;;;;;;1999.90;999.90;;;;;;;9.03;100.00;97207.09;5158803;27;20033;-73
2023/04/25 03:07:31;;;;;;;1999.90;999.90;;;;;;;8.94;100.00;97210.81;5158604;27;20019;-73
2023/04/25 03:09:56;;;;;;;1999.90;999.90;;;;;;;9.01;100.00;97211.22;5157656;27;20038;-75
2023/04/25 03:12:22;;;;;;;1999.90;999.90;;;;;;;8.98;100.00;97212.66;5158517;27;20030;-73
2023/04/25 03:14:47;;;;;;;1999.90;999.90;;;;;;;8.98;100.00;97209.13;5158819;27;20535;-73
2023/04/25 03:17:12;;;;;;;1999.90;999.90;;;;;;;8.96;100.00;97209.41;5158856;27;20050;-73
2023/04/25 03:19:38;;;;;;;1999.90;999.90;;;;;;;8.99;100.00;97208.78;5158529;27;20047;-73
2023/04/25 03:22:03;;;;;;;1999.90;999.90;;;;;;;9.03;100.00;97209.00;5140026;27;20030;-73
2023/04/25 03:24:29;;;;;;;1999.90;999.90;;;;;;;9.03;100.00;97209.00;5158324;27;20054;-73
2023/04/25 03:26:54;;;;;;;1999.90;999.90;;;;;;;9.10;100.00;97209.41;5159060;27;20018;-74
2023/04/25 03:29:24;;;;;;;1999.90;999.90;;;;;;;9.14;100.00;97216.69;5158676;27;20033;-73
2023/04/25 03:31:49;;;;;;;1999.90;999.90;;;;;;;9.10;100.00;97204.75;5158717;27;20050;-73
2023/04/25 03:34:16;;;;;;;1999.90;999.90;;;;;;;9.15;100.00;97212.03;5159119;27;20026;-74
2023/04/25 03:36:41;;;;;;;1999.90;999.90;;;;;;;9.05;100.00;97214.97;5159735;27;20023;-73
2023/04/25 03:39:07;;;;;;;1999.90;999.90;;;;;;;9.06;100.00;97213.84;5124431;27;20360;-73
2023/04/25 03:41:32;;;;;;;1999.90;999.90;;;;;;;9.14;100.00;97215.88;5106578;28;20071;-75
2023/04/25 03:43:57;;;;;;;1999.90;999.90;;;;;;;9.18;100.00;97216.09;5116843;28;20468;-73
2023/04/25 03:46:23;;;;;;;1999.90;999.90;;;;;;;9.11;100.00;97219.22;5117542;27;20019;-74
2023/04/25 03:48:48;;;;;;;1999.90;999.90;;;;;;;9.14;100.00;97215.88;5138084;27;20025;-73
2023/04/25 03:51:13;;;;;;;1999.90;999.90;;;;;;;9.15;100.00;97222.94;5136931;27;20100;-74
2023/04/25 03:53:39;;;;;;;1999.90;999.90;;;;;;;9.16;100.00;97227.28;5139032;27;20025;-75
2023/04/25 03:56:04;;;;;;;1999.90;999.90;;;;;;;9.23;100.00;97218.69;5136743;27;20034;-73
2023/04/25 03:58:30;;;;;;;1999.90;999.90;;;;;;;9.21;100.00;97221.72;5116370;27;20426;-73
2023/04/25 04:00:55;;;;;;;1999.90;999.90;;;;;;;9.26;100.00;97224.34;5129556;27;20361;-73
2023/04/25 04:03:21;;;;;;;1999.90;999.90;;;;;;;9.24;100.00;97234.75;5129396;27;20023;-73
2023/04/25 04:05:47;;;;;;;1999.90;999.90;;;;;;;9.24;100.00;97233.97;5129022;27;20149;-73
2023/04/25 04:08:12;;;;;;;1999.90;999.90;;;;;;;9.30;100.00;97236.28;5113283;28;20028;-73
2023/04/25 04:10:37;;;;;;;1999.90;999.90;;;;;;;9.37;100.00;97230.38;5112878;28;20054;-73
2023/04/25 04:13:03;;;;;;;1999.90;999.90;;;;;;;9.33;100.00;97235.69;5113161;28;20204;-73
2023/04/25 04:15:29;;;;;;;1999.90;999.90;;;;;;;9.41;100.00;97232.22;5116150;27;20027;-73
2023/04/25 04:17:54;;;;;;;1999.90;999.90;;;;;;;9.33;100.00;97230.22;5133765;27;20030;-72
2023/04/25 04:20:20;;;;;;;1999.90;999.90;;;;;;;9.32;100.00;97228.59;5134518;27;20027;-73
2023/04/25 04:22:46;;;;;;;1999.90;999.90;;;;;;;9.29;100.00;97234.66;5134226;27;20031;-74
2023/04/25 04:25:11;;;;;;;1999.90;999.90;;;;;;;9.28;100.00;97232.22;5115942;27;20411;-71
2023/04/25 04:27:37;;;;;;;1999.90;999.90;;;;;;;9.24;100.00;97237.47;5134635;27;20015;-71
2023/04/25 04:30:03;;;;;;;1999.90;999.90;;;;;;;9.21;100.00;97237.31;5134523;27;20421;-73
2023/04/25 04:32:30;;;;;;;1999.90;999.90;;;;;;;9.26;100.00;97240.72;5134349;27;20035;-71
2023/04/25 04:34:55;;;;;;;1999.90;999.90;;;;;;;9.18;100.00;97232.44;5125062;27;20031;-72
2023/04/25 04:37:21;;;;;;;1999.90;999.90;;;;;;;9.22;100.00;97247.09;5134029;27;20118;-72
2023/04/25 04:39:47;;;;;;;1999.90;999.90;;;;;;;9.19;100.00;97239.50;5133536;27;20057;-71
2023/04/25 04:42:12;;;;;;;1999.90;999.90;;;;;;;9.22;100.00;97233.44;5132541;27;20487;-74
2023/04/25 04:44:38;;;;;;;1999.90;999.90;;;;;;;9.22;100.00;97228.78;5132901;27;20027;-71
2023/04/25 04:47:06;;;;;;;1999.90;999.90;;;;;;;9.28;100.00;97232.22;5132885;27;20026;-71
2023/04/25 04:49:32;;;;;;;1999.90;999.90;;;;;;;9.29;100.00;97233.84;5132670;27;20027;-71
2023/04/25 04:51:57;;;;;;;1999.90;999.90;;;;;;;9.26;100.00;97232.53;5113675;27;20039;-74
2023/04/25 04:54:22;;;;;;;1999.90;999.90;;;;;;;9.29;100.00;97231.94;5132929;27;20138;-74
2023/04/25 04:56:48;;;;;;;1999.90;999.90;;;;;;;9.32;100.00;97239.50;5132386;27;20026;-73
2023/04/25 04:59:13;;;;;;;1999.90;999.90;;;;;;;9.38;100.00;97237.47;5133605;27;20026;-75
2023/04/25 05:01:38;;;;;;;1999.90;999.90;;;;;;;9.39;100.00;97234.44;5133080;27;20088;-73
2023/04/25 05:04:05;;;;;;;1999.90;999.90;;;;;;;9.46;100.00;97237.56;5132351;27;20133;-72
2023/04/25 05:06:31;;;;;;;1999.90;999.90;;;;;;;9.50;100.00;97237.75;5132249;27;20027;-73
2023/04/25 05:08:57;;;;;;;1999.90;999.90;;;;;;;9.53;100.00;97237.97;5132867;27;20076;-73
2023/04/25 05:11:26;;;;;;;1999.90;999.90;;;;;;;9.54;100.00;97236.84;5113236;27;20484;-73
2023/04/25 05:13:52;;;;;;;1999.90;999.90;;;;;;;9.55;100.00;97240.41;5132469;27;20110;-73
2023/04/25 05:16:18;;;;;;;1999.90;999.90;;;;;;;9.52;100.00;97230.88;5132020;27;20027;-73
2023/04/25 05:18:43;;;;;;;1999.90;999.90;;;;;;;9.63;100.00;97236.94;5132364;27;20026;-73
2023/04/25 05:21:09;;;;;;;1999.90;999.90;;;;;;;9.63;100.00;97251.41;5130854;27;20053;-72
2023/04/25 05:23:34;;;;;;;1999.90;999.90;;;;;;;9.70;100.00;97240.06;5111536;27;20066;-73
2023/04/25 05:26:01;;;;;;;1999.90;999.90;;;;;;;9.66;100.00;97234.41;5129341;27;20034;-72
2023/04/25 05:28:26;;;;;;;1999.90;999.90;;;;;;;9.67;100.00;97233.28;5130939;27;20033;-72
2023/04/25 05:30:52;;;;;;;1999.90;999.90;;;;;;;9.68;100.00;97226.69;5130181;27;20030;-73
2023/04/25 05:33:18;;;;;;;1999.90;999.90;;;;;;;9.66;100.00;97223.47;5130177;27;20077;-72
2023/04/25 05:35:43;;;;;;;1999.90;999.90;;;;;;;9.74;100.00;97223.88;5130365;27;20011;-72
2023/04/25 05:38:09;;;;;;;1999.90;999.90;;;;;;;9.76;100.00;97225.16;5130458;27;20072;-73
2023/04/25 05:40:35;;;;;;;1999.90;999.90;;;;;;;9.62;100.00;97216.19;5131025;27;20039;-72
2023/04/25 05:43:00;;;;;;;1999.90;999.90;;;;;;;9.60;100.00;97219.25;5131679;27;20007;-71
2023/04/25 05:45:26;;;;;;;1999.90;999.90;;;;;;;9.52;100.00;97211.75;5130743;27;20019;-73
2023/04/25 05:47:51;;;;;;;1999.90;999.90;;;;;;;9.56;100.00;97210.03;5130585;27;20564;-74
2023/04/25 05:50:16;;;;;;;1999.90;999.90;;;;;;;9.68;100.00;97213.03;5129690;27;20038;-75
2023/04/25 05:52:42;;;;;;;1999.90;999.90;;;;;;;9.78;100.00;97214.72;5129895;27;20023;-73
2023/04/25 05:55:08;;;;;;;1999.90;999.90;;;;;;;9.90;100.00;97209.53;5130360;27;20036;-73
2023/04/25 05:57:33;;;;;;;1999.90;999.90;;;;;;;9.96;100.00;97202.03;5130718;27;20023;-73
2023/04/25 05:59:58;;;;;;;1999.90;999.90;;;;;;;10.13;100.00;97196.69;5133290;27;20019;-73
2023/04/25 06:02:24;;;;;;;1999.90;999.90;;;;;;;10.18;100.00;97196.59;5136782;27;20487;-76
2023/04/25 06:04:51;;;;;;;1999.90;999.90;;;;;;;10.06;100.00;97197.13;5131193;27;20031;-72
2023/04/25 06:07:16;;;;;;;1999.90;999.90;;;;;;;10.15;100.00;97191.75;5131065;27;20091;-73
2023/04/25 06:09:42;;;;;;;1999.90;999.90;;;;;;;10.27;100.00;97186.53;5131143;27;20554;-72
2023/04/25 06:12:07;;;;;;;1999.90;999.90;;;;;;;10.43;100.00;97198.69;5131105;27;20482;-72
2023/04/25 06:14:34;;;;;;;1999.90;999.90;;;;;;;10.46;100.00;97205.47;5130579;27;20019;-73
2023/04/25 06:16:59;;;;;;;1999.90;999.90;;;;;;;10.48;100.00;97190.34;5131392;27;20031;-73
2023/04/25 06:19:25;;;;;;;1999.90;999.90;;;;;;;10.46;100.00;97206.25;5131703;27;20432;-73
2023/04/25 06:21:50;;;;;;;1999.90;999.90;;;;;;;10.48;100.00;97200.47;5131620;27;20023;-73
2023/04/25 06:24:15;;;;;;;1999.90;999.90;;;;;;;10.55;100.00;97211.78;5131885;27;20028;-73
2023/04/25 06:26:41;;;;;;;1999.90;999.90;;;;;;;10.79;100.00;97216.88;5131805;27;20019;-73
2023/04/25 06:29:06;;;;;;;1999.90;999.90;;;;;;;10.86;100.00;97217.25;5131800;27;20735;-72
2023/04/25 06:31:32;;;;;;;1999.90;999.90;;;;;;;10.88;100.00;97213.06;5131028;27;20369;-72
2023/04/25 06:33:58;;;;;;;1999.90;999.90;;;;;;;10.84;100.00;97214.03;5121371;27;20024;-72
2023/04/25 06:36:25;;;;;;;1999.90;999.90;;;;;;;10.86;100.00;97198.09;5110523;28;20472;-73
2023/04/25 06:38:54;;;;;;;1999.90;999.90;;;;;;;10.78;100.00;97185.97;5091975;28;20047;-72
2023/04/25 06:41:20;;;;;;;1999.90;999.90;;;;;;;11.15;100.00;97204.63;5120219;28;20384;-72
2023/04/25 06:43:45;;;;;;;1999.90;999.90;;;;;;;11.16;100.00;97210.91;5130862;27;20512;-72
2023/04/25 06:46:11;;;;;;;1999.90;999.90;;;;;;;11.26;100.00;97202.41;5130811;28;20061;-72
2023/04/25 06:48:36;;;;;;;1999.90;999.90;;;;;;;11.50;100.00;97212.94;5130987;28;20015;-72
2023/04/25 06:51:02;;;;;;;1999.90;999.90;;;;;;;11.77;100.00;97219.00;5112727;28;20027;-72
2023/04/25 06:53:28;;;;;;;1999.90;999.90;;;;;;;11.91;100.00;97221.56;5130970;27;20110;-72
2023/04/25 06:55:53;;;;;;;1999.90;999.90;;;;;;;12.35;100.00;97223.16;5131208;28;20038;-72
2023/04/25 06:58:18;;;;;;;1999.90;999.90;;;;;;;12.49;100.00;97226.53;5112440;28;20069;-73
2023/04/25 07:00:44;;;;;;;1999.90;999.90;;;;;;;12.57;100.00;97231.19;5131343;28;20031;-73
2023/04/25 07:03:09;;;;;;;1999.90;999.90;;;;;;;12.55;100.00;97230.72;5112539;28;20482;-72
2023/04/25 07:05:35;;;;;;;1999.90;999.90;;;;;;;12.44;100.00;97232.19;5131195;28;20030;-71
2023/04/25 07:08:00;;;;;;;1999.90;999.90;;;;;;;12.34;100.00;97241.53;5131958;28;20092;-73
2023/04/25 07:10:26;;;;;;;1999.90;999.90;;;;;;;12.07;100.00;97236.41;5130865;28;20039;-72
2023/04/25 07:12:51;;;;;;;1999.90;999.90;;;;;;;12.09;100.00;97236.09;5130805;28;20529;-73
2023/04/25 07:15:16;;;;;;;1999.90;999.90;;;;;;;11.81;100.00;97233.63;5112230;28;20035;-72
2023/04/25 07:17:42;;;;;;;1999.90;999.90;;;;;;;11.87;100.00;97230.75;5130654;28;20034;-72
2023/04/25 07:20:09;;;;;;;1999.90;999.90;;;;;;;12.02;100.00;97227.53;5130443;28;20098;-72
2023/04/25 07:22:34;;;;;;;1999.90;999.90;;;;;;;12.26;100.00;97220.44;5111867;28;20038;-72
2023/04/25 07:25:00;;;;;;;1999.90;999.90;;;;;;;12.31;100.00;97230.41;5112935;27;20023;-74
2023/04/25 07:27:25;;;;;;;1999.90;999.90;;;;;;;12.50;100.00;97221.88;5116009;27;20023;-72
2023/04/25 07:29:50;;;;;;;1999.90;999.90;;;;;;;12.72;100.00;97218.88;5135383;27;20142;-73
2023/04/25 07:32:16;;;;;;;1999.90;999.90;;;;;;;13.00;100.00;97219.28;5154353;27;20505;-73
2023/04/25 07:34:41;;;;;;;1999.90;999.90;;;;;;;12.95;100.00;97219.47;5136628;27;20105;-73
2023/04/25 07:37:07;;;;;;;1999.90;999.90;;;;;;;13.11;100.00;97215.06;5155163;27;20475;-73
2023/04/25 07:39:32;;;;;;;1999.90;999.90;;;;;;;13.23;100.00;97210.50;5155179;27;20031;-73
2023/04/25 07:42:01;;;;;;;1999.90;999.90;;;;;;;13.31;100.00;97217.88;5155185;27;20068;-72
2023/04/25 07:44:27;;;;;;;1999.90;999.90;;;;;;;13.54;100.00;97221.16;5155157;27;20031;-73
2023/04/25 07:46:52;;;;;;;1999.90;999.90;;;;;;;13.51;100.00;97213.56;5155153;27;20383;-73
2023/04/25 07:49:18;;;;;;;1999.90;999.90;;;;;;;13.35;100.00;97210.59;5155411;27;20107;-73
2023/04/25 07:51:43;;;;;;;1999.90;999.90;;;;;;;13.33;100.00;97218.38;5156402;27;20033;-73
2023/04/25 07:54:09;;;;;;;1999.90;999.90;;;;;;;13.34;100.00;97224.66;5136151;27;20440;-73
2023/04/25 07:56:35;;;;;;;1999.90;999.90;;;;;;;13.52;100.00;97222.63;5155056;27;20475;-74
2023/04/25 07:59:01;;;;;;;1999.90;999.90;;;;;;;13.88;100.00;97228.34;5155034;27;20050;-73
2023/04/25 08:01:26;;;;;;;1999.90;999.90;;;;;;;14.32;100.00;97221.38;5154865;27;20222;-73
2023/04/25 08:03:52;;;;;;;1999.90;999.90;;;;;;;14.76;100.00;97228.91;5154875;27;20047;-74
2023/04/25 08:06:17;;;;;;;1999.90;999.90;;;;;;;15.02;100.00;97223.91;5156202;27;20030;-74
2023/04/25 08:08:43;;;;;;;1999.90;999.90;;;;;;;14.82;100.00;97219.28;5159467;27;20023;-74
2023/04/25 08:11:08;;;;;;;1999.90;999.90;;;;;;;14.83;100.00;97226.41;5158275;27;20146;-74
2023/04/25 08:13:34;;;;;;;1999.90;999.90;;;;;;;14.93;100.00;97222.41;5154544;27;20114;-73
2023/04/25 08:15:59;;;;;;;1999.90;999.90;;;;;;;15.06;100.00;97218.53;5154781;27;20121;-74
2023/04/25 08:18:24;;;;;;;1999.90;999.90;;;;;;;15.24;100.00;97219.13;5154673;27;20113;-74
2023/04/25 08:20:50;;;;;;;1999.90;999.90;;;;;;;16.01;100.00;97218.03;5154289;27;20471;-74
2023/04/25 08:23:15;;;;;;;1999.90;999.90;;;;;;;17.44;96.64;97224.38;5154664;27;20119;-74
2023/04/25 08:25:41;;;;;;;1999.90;999.90;;;;;;;18.75;86.27;97222.56;5153986;27;20026;-74
2023/04/25 08:28:06;;;;;;;1999.90;999.90;;;;;;;19.12;79.69;97223.66;5154507;27;20038;-74
2023/04/25 08:30:31;;;;;;;1999.90;999.90;;;;;;;20.25;69.29;97231.06;5154881;27;20542;-74
2023/04/25 08:32:57;;;;;;;1999.90;999.90;;;;;;;21.60;62.19;97232.59;5154376;27;20076;-75
2023/04/25 08:35:23;;;;;;;1999.90;999.90;;;;;;;21.52;60.59;97237.28;5154280;27;20053;-74
2023/04/25 08:37:49;;;;;;;1999.90;999.90;;;;;;;20.94;61.66;97223.19;5153356;27;20026;-74
2023/04/25 08:40:15;;;;;;;1999.90;999.90;;;;;;;19.25;67.67;97222.31;5154253;27;20030;-74
2023/04/25 08:42:42;;;;;;;1999.90;999.90;;;;;;;18.59;72.24;97224.63;5154154;27;20031;-74
2023/04/25 08:45:08;;;;;;;1999.90;999.90;;;;;;;17.44;75.72;97229.91;5154089;27;20053;-74
2023/04/25 08:47:34;;;;;;;1999.90;999.90;;;;;;;17.19;78.93;97215.47;5153941;27;20035;-74
2023/04/25 08:50:02;;;;;;;1999.90;999.90;;;;;;;17.01;78.61;97214.97;5153949;27;20106;-74
2023/04/25 08:52:30;;;;;;;1999.90;999.90;;;;;;;17.15;78.22;97214.56;5153588;27;20066;-74
2023/04/25 08:54:57;;;;;;;1999.90;999.90;;;;;;;17.92;72.58;97226.72;5154342;27;20026;-74
2023/04/25 08:57:23;;;;;;;1999.90;999.90;;;;;;;16.94;73.11;97225.88;5154828;27;20046;-74
2023/04/25 08:59:49;;;;;;;1999.90;999.90;;;;;;;17.61;73.53;97237.84;5154401;27;20057;-74
2023/04/25 09:02:16;;;;;;;1999.90;999.90;;;;;;;16.96;74.24;97231.84;5153866;27;20014;-74
2023/04/25 09:04:45;;;;;;;1999.90;999.90;;;;;;;16.66;76.23;97227.06;5153848;27;20052;-74
2023/04/25 09:07:10;;;;;;;1999.90;999.90;;;;;;;16.26;78.78;97229.81;5153836;27;20364;-74
2023/04/25 09:09:36;;;;;;;1999.90;999.90;;;;;;;16.67;78.29;97232.22;5153668;27;20038;-74
2023/04/25 09:12:01;;;;;;;1999.90;999.90;;;;;;;17.32;77.53;97230.00;5153538;27;20041;-74
2023/04/25 09:14:27;;;;;;;1999.90;999.90;;;;;;;17.58;72.86;97224.72;5153726;27;20916;-74
2023/04/25 09:16:56;;;;;;;1999.90;999.90;;;;;;;17.44;72.91;97230.69;5156035;27;20023;-74
2023/04/25 09:19:31;;;;;;;1999.90;999.90;;;;;;;17.76;70.06;97230.69;5153548;27;20023;-74
2023/04/25 09:21:58;;;;;;;1999.90;999.90;;;;;;;17.76;69.04;97223.19;5153415;27;20070;-74
2023/04/25 09:24:35;;;;;;;1999.90;999.90;;;;;;;17.89;69.43;97227.44;5153265;27;20023;-74
2023/04/25 09:27:10;;;;;;;1999.90;999.90;;;;;;;17.92;68.73;97223.16;5153208;27;20039;-74
2023/04/25 09:29:37;;;;;;;1999.90;999.90;;;;;;;17.91;67.36;97230.66;5134671;27;20026;-74
2023/04/25 09:32:16;;;;;;;1999.90;999.90;;;;;;;17.96;67.17;97226.81;5135068;27;20073;-74
2023/04/25 09:34:44;;;;;;;1999.90;999.90;;;;;;;17.59;67.65;97234.63;5153909;27;20387;-74
2023/04/25 09:37:10;;;;;;;1999.90;999.90;;;;;;;18.02;66.70;97234.47;5153202;27;20083;-75
2023/04/25 09:39:37;;;;;;;1999.90;999.90;;;;;;;18.53;63.52;97229.66;5153236;27;20411;-74
2023/04/25 09:42:04;;;;;;;1999.90;999.90;;;;;;;18.12;64.24;97230.34;5153071;27;20119;-74
2023/04/25 09:44:29;;;;;;;1999.90;999.90;;;;;;;17.83;66.33;97228.88;5152005;27;20515;-74
2023/04/25 09:46:54;;;;;;;1999.90;999.90;;;;;;;17.00;69.94;97229.16;5152966;27;20042;-74
2023/04/25 09:49:21;;;;;;;1999.90;999.90;;;;;;;17.05;69.65;97229.69;5152396;27;20482;-74
2023/04/25 09:52:00;;;;;;;1999.90;999.90;;;;;;;17.19;68.14;97226.50;5152827;27;20051;-74
2023/04/25 09:54:26;;;;;;;1999.90;999.90;;;;;;;16.84;69.65;97214.53;5131157;27;20459;-74
2023/04/25 09:56:53;;;;;;;1999.90;999.90;;;;;;;16.73;71.76;97216.97;5152927;27;20031;-74
2023/04/25 09:59:24;;;;;;;1999.90;999.90;;;;;;;16.86;69.94;97207.47;5137625;27;20392;-74
2023/04/25 10:01:50;;;;;;;1999.90;999.90;;;;;;;16.85;71.14;97210.63;5132336;27;20401;-76
2023/04/25 10:04:23;;;;;;;1999.90;999.90;;;;;;;16.86;70.26;97204.72;5130355;27;20071;-76
2023/04/25 10:06:50;;;;;;;1999.90;999.90;;;;;;;16.74;69.70;97199.25;5131765;27;20027;-76
2023/04/25 10:09:17;;;;;;;1999.90;999.90;;;;;;;16.64;69.85;97183.19;5131180;27;20476;-75
2023/04/25 10:11:45;;;;;;;1999.90;999.90;;;;;;;16.76;69.35;97174.84;5131929;27;20046;-75
2023/04/25 10:14:12;;;;;;;1999.90;999.90;;;;;;;16.68;68.85;97188.81;5114092;27;20023;-74
2023/04/25 10:16:38;;;;;;;1999.90;999.90;;;;;;;16.60;69.76;97187.84;5135427;27;20064;-77
2023/04/25 10:19:04;;;;;;;1999.90;999.90;;;;;;;16.96;69.29;97181.28;5139535;27;20073;-76
2023/04/25 10:21:32;;;;;;;1999.90;999.90;;;;;;;17.04;67.71;97174.81;5131865;27;20051;-76
2023/04/25 10:23:58;;;;;;;1999.90;999.90;;;;;;;17.06;67.50;97172.47;5131340;27;20042;-77
2023/04/25 10:26:24;;;;;;;1999.90;999.90;;;;;;;16.77;68.80;97164.59;5131709;27;20034;-77
2023/04/25 10:28:57;;;;;;;1999.90;999.90;;;;;;;16.38;70.38;97158.78;5131247;27;21496;-75
2023/04/25 10:31:23;;;;;;;1999.90;999.90;;;;;;;16.56;69.46;97160.13;5122122;27;20043;-76
2023/04/25 10:33:49;;;;;;;1999.90;999.90;;;;;;;16.59;67.70;97159.44;5111339;28;20028;-73
2023/04/25 10:36:17;;;;;;;1999.90;999.90;;;;;;;16.85;65.76;97161.66;5110923;28;20106;-73
2023/04/25 10:38:44;;;;;;;1999.90;999.90;;;;;;;16.74;65.22;97163.34;5111185;28;20023;-74
2023/04/25 10:41:12;;;;;;;1999.90;999.90;;;;;;;16.95;65.99;97150.09;5121726;28;20037;-75
2023/04/25 10:43:44;;;;;;;1999.90;999.90;;;;;;;17.19;64.75;97145.53;5132806;28;20029;-75
2023/04/25 10:46:26;;;;;;;1999.90;999.90;;;;;;;17.48;64.15;97147.81;5131571;28;20410;-74
2023/04/25 10:48:59;;;;;;;1999.90;999.90;;;;;;;17.62;63.16;97151.75;5131180;28;20019;-75